sensor_id;sensor_type;location;lat;lon;timestamp;P1;durP1;ratioP1;P2;durP2;ratioP2
13590;SDS011;6866;50.778;7.206;2024-01-07T00:00:30;37.30;;;30.10;;
13590;SDS011;6866;50.778;7.206;2024-01-07T00:02:55;33.50;;;27.95;;
13590;SDS011;6866;50.778;7.206;2024-01-07T00:05:21;34.50;;;28.45;;
13590;SDS011;6866;50.778;7.206;2024-01-07T00:07:46;33.15;;;27.70;;
13590;SDS011;6866;50.778;7.206;2024-01-07T00:10:13;32.22;;;27.45;;
13590;SDS011;6866;50.778;7.206;2024-01-07T00:12:38;31.08;;;26.20;;
13590;SDS011;6866;50.778;7.206;2024-01-07T00:15:04;30.42;;;26.20;;
13590;SDS011;6866;50.778;7.206;2024-01-07T00:17:30;33.17;;;27.02;;
13590;SDS011;6866;50.778;7.206;2024-01-07T00:19:56;33.08;;;27.25;;
13590;SDS011;6866;50.778;7.206;2024-01-07T00:22:21;31.77;;;26.85;;
13590;SDS011;6866;50.778;7.206;2024-01-07T00:24:47;32.72;;;27.10;;
13590;SDS011;6866;50.778;7.206;2024-01-07T00:27:12;32.05;;;26.92;;
13590;SDS011;6866;50.778;7.206;2024-01-07T00:29:38;30.98;;;26.40;;
13590;SDS011;6866;50.778;7.206;2024-01-07T00:32:03;24.92;;;20.77;;
13590;SDS011;6866;50.778;7.206;2024-01-07T00:34:29;32.55;;;26.42;;
13590;SDS011;6866;50.778;7.206;2024-01-07T00:36:55;28.35;;;24.83;;
13590;SDS011;6866;50.778;7.206;2024-01-07T00:39:20;30.25;;;25.40;;
13590;SDS011;6866;50.778;7.206;2024-01-07T00:41:46;30.30;;;25.63;;
13590;SDS011;6866;50.778;7.206;2024-01-07T00:44:12;28.90;;;24.05;;
13590;SDS011;6866;50.778;7.206;2024-01-07T00:46:38;31.17;;;25.55;;
13590;SDS011;6866;50.778;7.206;2024-01-07T00:49:03;32.55;;;26.05;;
13590;SDS011;6866;50.778;7.206;2024-01-07T00:51:29;30.88;;;25.30;;
13590;SDS011;6866;50.778;7.206;2024-01-07T00:53:54;32.60;;;26.10;;
13590;SDS011;6866;50.778;7.206;2024-01-07T00:56:20;30.63;;;25.55;;
13590;SDS011;6866;50.778;7.206;2024-01-07T00:58:45;29.15;;;24.52;;
13590;SDS011;6866;50.778;7.206;2024-01-07T01:01:11;30.30;;;24.95;;
13590;SDS011;6866;50.778;7.206;2024-01-07T01:03:36;30.10;;;24.23;;
13590;SDS011;6866;50.778;7.206;2024-01-07T01:06:02;28.75;;;24.42;;
13590;SDS011;6866;50.778;7.206;2024-01-07T01:08:28;28.08;;;24.58;;
13590;SDS011;6866;50.778;7.206;2024-01-07T01:10:54;29.90;;;24.45;;
13590;SDS011;6866;50.778;7.206;2024-01-07T01:13:20;27.90;;;23.23;;
13590;SDS011;6866;50.778;7.206;2024-01-07T01:15:45;28.75;;;23.85;;
13590;SDS011;6866;50.778;7.206;2024-01-07T01:18:11;28.52;;;24.08;;
13590;SDS011;6866;50.778;7.206;2024-01-07T01:20:36;27.63;;;23.38;;
13590;SDS011;6866;50.778;7.206;2024-01-07T01:23:02;28.20;;;23.73;;
13590;SDS011;6866;50.778;7.206;2024-01-07T01:25:27;29.70;;;23.48;;
13590;SDS011;6866;50.778;7.206;2024-01-07T01:27:54;28.90;;;23.95;;
13590;SDS011;6866;50.778;7.206;2024-01-07T01:30:21;28.00;;;23.45;;
13590;SDS011;6866;50.778;7.206;2024-01-07T01:32:46;27.73;;;23.38;;
13590;SDS011;6866;50.778;7.206;2024-01-07T01:35:12;27.95;;;22.98;;
13590;SDS011;6866;50.778;7.206;2024-01-07T01:37:37;28.52;;;24.17;;
13590;SDS011;6866;50.778;7.206;2024-01-07T01:40:03;28.38;;;23.30;;
13590;SDS011;6866;50.778;7.206;2024-01-07T01:42:29;28.88;;;23.27;;
13590;SDS011;6866;50.778;7.206;2024-01-07T01:44:55;28.17;;;23.52;;
13590;SDS011;6866;50.778;7.206;2024-01-07T01:47:24;28.60;;;23.30;;
13590;SDS011;6866;50.778;7.206;2024-01-07T01:49:50;29.30;;;24.08;;
13590;SDS011;6866;50.778;7.206;2024-01-07T01:52:15;26.40;;;22.73;;
13590;SDS011;6866;50.778;7.206;2024-01-07T01:54:41;27.67;;;22.95;;
13590;SDS011;6866;50.778;7.206;2024-01-07T01:57:07;26.67;;;22.75;;
13590;SDS011;6866;50.778;7.206;2024-01-07T01:59:38;27.63;;;22.60;;
13590;SDS011;6866;50.778;7.206;2024-01-07T02:04:40;27.65;;;22.38;;
13590;SDS011;6866;50.778;7.206;2024-01-07T02:07:05;26.23;;;22.13;;
13590;SDS011;6866;50.778;7.206;2024-01-07T02:09:31;24.10;;;20.80;;
13590;SDS011;6866;50.778;7.206;2024-01-07T02:12:00;24.58;;;20.88;;
13590;SDS011;6866;50.778;7.206;2024-01-07T02:14:27;25.17;;;21.67;;
13590;SDS011;6866;50.778;7.206;2024-01-07T02:16:53;25.40;;;21.10;;
13590;SDS011;6866;50.778;7.206;2024-01-07T02:19:18;25.73;;;21.55;;
13590;SDS011;6866;50.778;7.206;2024-01-07T02:21:46;26.40;;;21.50;;
13590;SDS011;6866;50.778;7.206;2024-01-07T02:24:15;25.25;;;20.67;;
13590;SDS011;6866;50.778;7.206;2024-01-07T02:26:41;23.77;;;20.27;;
13590;SDS011;6866;50.778;7.206;2024-01-07T02:29:07;23.83;;;20.17;;
13590;SDS011;6866;50.778;7.206;2024-01-07T02:31:32;24.00;;;20.25;;
13590;SDS011;6866;50.778;7.206;2024-01-07T02:33:58;24.52;;;20.77;;
13590;SDS011;6866;50.778;7.206;2024-01-07T02:36:23;24.45;;;20.63;;
13590;SDS011;6866;50.778;7.206;2024-01-07T02:38:49;24.23;;;20.60;;
13590;SDS011;6866;50.778;7.206;2024-01-07T02:41:14;22.88;;;19.65;;
13590;SDS011;6866;50.778;7.206;2024-01-07T02:43:40;22.90;;;19.65;;
13590;SDS011;6866;50.778;7.206;2024-01-07T02:46:05;22.00;;;18.85;;
13590;SDS011;6866;50.778;7.206;2024-01-07T02:48:32;22.92;;;19.25;;
13590;SDS011;6866;50.778;7.206;2024-01-07T02:50:57;21.02;;;17.90;;
13590;SDS011;6866;50.778;7.206;2024-01-07T02:53:23;22.33;;;18.17;;
13590;SDS011;6866;50.778;7.206;2024-01-07T02:55:48;20.92;;;18.02;;
13590;SDS011;6866;50.778;7.206;2024-01-07T02:58:14;20.80;;;17.80;;
13590;SDS011;6866;50.778;7.206;2024-01-07T03:00:39;21.20;;;17.88;;
13590;SDS011;6866;50.778;7.206;2024-01-07T03:03:05;21.50;;;17.63;;
13590;SDS011;6866;50.778;7.206;2024-01-07T03:05:30;21.15;;;17.88;;
13590;SDS011;6866;50.778;7.206;2024-01-07T03:07:58;19.13;;;16.63;;
13590;SDS011;6866;50.778;7.206;2024-01-07T03:10:25;19.20;;;16.52;;
13590;SDS011;6866;50.778;7.206;2024-01-07T03:12:50;18.90;;;15.90;;
13590;SDS011;6866;50.778;7.206;2024-01-07T03:15:16;19.48;;;16.15;;
13590;SDS011;6866;50.778;7.206;2024-01-07T03:17:41;19.67;;;16.60;;
13590;SDS011;6866;50.778;7.206;2024-01-07T03:20:08;19.85;;;16.15;;
13590;SDS011;6866;50.778;7.206;2024-01-07T03:22:34;19.55;;;16.40;;
13590;SDS011;6866;50.778;7.206;2024-01-07T03:24:59;18.67;;;16.48;;
13590;SDS011;6866;50.778;7.206;2024-01-07T03:27:25;18.90;;;16.55;;
13590;SDS011;6866;50.778;7.206;2024-01-07T03:29:50;18.98;;;16.40;;
13590;SDS011;6866;50.778;7.206;2024-01-07T03:32:16;20.13;;;17.17;;
13590;SDS011;6866;50.778;7.206;2024-01-07T03:34:42;19.10;;;16.30;;
13590;SDS011;6866;50.778;7.206;2024-01-07T03:37:08;19.25;;;16.45;;
13590;SDS011;6866;50.778;7.206;2024-01-07T03:39:33;21.00;;;17.65;;
13590;SDS011;6866;50.778;7.206;2024-01-07T03:41:59;21.23;;;17.27;;
13590;SDS011;6866;50.778;7.206;2024-01-07T03:44:25;20.98;;;18.23;;
13590;SDS011;6866;50.778;7.206;2024-01-07T03:46:50;21.75;;;18.52;;
13590;SDS011;6866;50.778;7.206;2024-01-07T03:49:16;22.38;;;19.08;;
13590;SDS011;6866;50.778;7.206;2024-01-07T03:51:43;23.65;;;19.25;;
13590;SDS011;6866;50.778;7.206;2024-01-07T03:54:09;23.25;;;19.42;;
13590;SDS011;6866;50.778;7.206;2024-01-07T03:56:34;22.85;;;19.60;;
13590;SDS011;6866;50.778;7.206;2024-01-07T03:59:00;24.52;;;19.98;;
13590;SDS011;6866;50.778;7.206;2024-01-07T04:01:25;24.20;;;20.02;;
13590;SDS011;6866;50.778;7.206;2024-01-07T04:03:51;23.85;;;20.10;;
13590;SDS011;6866;50.778;7.206;2024-01-07T04:06:16;24.98;;;20.35;;
13590;SDS011;6866;50.778;7.206;2024-01-07T04:08:42;23.63;;;19.70;;
13590;SDS011;6866;50.778;7.206;2024-01-07T04:11:08;23.10;;;20.60;;
13590;SDS011;6866;50.778;7.206;2024-01-07T04:13:33;24.27;;;20.35;;
13590;SDS011;6866;50.778;7.206;2024-01-07T04:15:59;25.10;;;20.58;;
13590;SDS011;6866;50.778;7.206;2024-01-07T04:18:24;25.70;;;21.10;;
13590;SDS011;6866;50.778;7.206;2024-01-07T04:20:50;24.58;;;20.13;;
13590;SDS011;6866;50.778;7.206;2024-01-07T04:23:15;24.75;;;21.13;;
13590;SDS011;6866;50.778;7.206;2024-01-07T04:25:41;26.10;;;21.45;;
13590;SDS011;6866;50.778;7.206;2024-01-07T04:28:07;24.15;;;20.88;;
13590;SDS011;6866;50.778;7.206;2024-01-07T04:30:33;26.83;;;22.48;;
13590;SDS011;6866;50.778;7.206;2024-01-07T04:32:58;26.42;;;22.08;;
13590;SDS011;6866;50.778;7.206;2024-01-07T04:35:24;24.10;;;21.30;;
13590;SDS011;6866;50.778;7.206;2024-01-07T04:37:49;25.27;;;22.17;;
13590;SDS011;6866;50.778;7.206;2024-01-07T04:40:15;25.58;;;21.02;;
13590;SDS011;6866;50.778;7.206;2024-01-07T04:42:40;25.42;;;21.33;;
13590;SDS011;6866;50.778;7.206;2024-01-07T04:45:06;24.23;;;20.42;;
13590;SDS011;6866;50.778;7.206;2024-01-07T04:47:32;23.30;;;20.25;;
13590;SDS011;6866;50.778;7.206;2024-01-07T04:50:02;25.60;;;21.17;;
13590;SDS011;6866;50.778;7.206;2024-01-07T04:52:28;23.67;;;19.90;;
13590;SDS011;6866;50.778;7.206;2024-01-07T04:54:54;23.05;;;19.90;;
13590;SDS011;6866;50.778;7.206;2024-01-07T04:57:20;22.75;;;19.17;;
13590;SDS011;6866;50.778;7.206;2024-01-07T04:59:47;21.67;;;17.52;;
13590;SDS011;6866;50.778;7.206;2024-01-07T05:02:14;22.30;;;18.02;;
13590;SDS011;6866;50.778;7.206;2024-01-07T05:04:39;21.23;;;18.13;;
13590;SDS011;6866;50.778;7.206;2024-01-07T05:07:05;22.17;;;18.58;;
13590;SDS011;6866;50.778;7.206;2024-01-07T05:09:31;20.48;;;17.02;;
13590;SDS011;6866;50.778;7.206;2024-01-07T05:11:57;20.52;;;16.55;;
13590;SDS011;6866;50.778;7.206;2024-01-07T05:14:23;20.10;;;16.48;;
13590;SDS011;6866;50.778;7.206;2024-01-07T05:16:49;20.05;;;16.40;;
13590;SDS011;6866;50.778;7.206;2024-01-07T05:19:14;20.08;;;17.17;;
13590;SDS011;6866;50.778;7.206;2024-01-07T05:21:40;19.42;;;16.33;;
13590;SDS011;6866;50.778;7.206;2024-01-07T05:24:05;18.23;;;15.90;;
13590;SDS011;6866;50.778;7.206;2024-01-07T05:26:31;20.40;;;16.60;;
13590;SDS011;6866;50.778;7.206;2024-01-07T05:29:04;20.05;;;16.70;;
13590;SDS011;6866;50.778;7.206;2024-01-07T05:31:30;22.15;;;18.35;;
13590;SDS011;6866;50.778;7.206;2024-01-07T05:33:55;19.58;;;16.50;;
13590;SDS011;6866;50.778;7.206;2024-01-07T05:36:21;20.50;;;17.13;;
13590;SDS011;6866;50.778;7.206;2024-01-07T05:38:46;19.40;;;17.00;;
13590;SDS011;6866;50.778;7.206;2024-01-07T05:41:12;22.67;;;18.30;;
13590;SDS011;6866;50.778;7.206;2024-01-07T05:43:37;22.63;;;18.02;;
13590;SDS011;6866;50.778;7.206;2024-01-07T05:46:03;22.23;;;18.40;;
13590;SDS011;6866;50.778;7.206;2024-01-07T05:48:29;22.23;;;18.77;;
13590;SDS011;6866;50.778;7.206;2024-01-07T05:50:54;24.55;;;19.20;;
13590;SDS011;6866;50.778;7.206;2024-01-07T05:53:20;24.85;;;20.15;;
13590;SDS011;6866;50.778;7.206;2024-01-07T05:55:45;24.10;;;20.02;;
13590;SDS011;6866;50.778;7.206;2024-01-07T05:58:11;27.85;;;21.05;;
13590;SDS011;6866;50.778;7.206;2024-01-07T06:00:37;25.13;;;21.13;;
13590;SDS011;6866;50.778;7.206;2024-01-07T06:03:03;23.77;;;19.90;;
13590;SDS011;6866;50.778;7.206;2024-01-07T06:05:29;25.83;;;21.35;;
13590;SDS011;6866;50.778;7.206;2024-01-07T06:07:54;25.10;;;20.90;;
13590;SDS011;6866;50.778;7.206;2024-01-07T06:10:20;25.63;;;20.50;;
13590;SDS011;6866;50.778;7.206;2024-01-07T06:12:46;25.27;;;21.02;;
13590;SDS011;6866;50.778;7.206;2024-01-07T06:15:12;26.95;;;22.10;;
13590;SDS011;6866;50.778;7.206;2024-01-07T06:17:38;23.75;;;20.77;;
13590;SDS011;6866;50.778;7.206;2024-01-07T06:20:03;25.90;;;20.90;;
13590;SDS011;6866;50.778;7.206;2024-01-07T06:22:30;24.35;;;21.52;;
13590;SDS011;6866;50.778;7.206;2024-01-07T06:24:56;25.60;;;21.08;;
13590;SDS011;6866;50.778;7.206;2024-01-07T06:27:21;25.35;;;21.05;;
13590;SDS011;6866;50.778;7.206;2024-01-07T06:29:47;26.13;;;21.35;;
13590;SDS011;6866;50.778;7.206;2024-01-07T06:32:13;27.42;;;22.48;;
13590;SDS011;6866;50.778;7.206;2024-01-07T06:34:38;27.17;;;22.38;;
13590;SDS011;6866;50.778;7.206;2024-01-07T06:37:04;27.83;;;22.95;;
13590;SDS011;6866;50.778;7.206;2024-01-07T06:39:30;26.40;;;22.15;;
13590;SDS011;6866;50.778;7.206;2024-01-07T06:41:56;25.80;;;22.17;;
13590;SDS011;6866;50.778;7.206;2024-01-07T06:44:22;27.90;;;22.77;;
13590;SDS011;6866;50.778;7.206;2024-01-07T06:46:47;26.75;;;22.30;;
13590;SDS011;6866;50.778;7.206;2024-01-07T06:49:13;24.70;;;21.48;;
13590;SDS011;6866;50.778;7.206;2024-01-07T06:51:39;25.00;;;21.90;;
13590;SDS011;6866;50.778;7.206;2024-01-07T06:54:05;25.52;;;22.13;;
13590;SDS011;6866;50.778;7.206;2024-01-07T06:56:30;26.52;;;22.45;;
13590;SDS011;6866;50.778;7.206;2024-01-07T06:58:56;25.10;;;21.95;;
13590;SDS011;6866;50.778;7.206;2024-01-07T07:01:21;27.67;;;14.63;;
13590;SDS011;6866;50.778;7.206;2024-01-07T07:03:48;25.77;;;22.27;;
13590;SDS011;6866;50.778;7.206;2024-01-07T07:06:16;25.27;;;22.58;;
13590;SDS011;6866;50.778;7.206;2024-01-07T07:08:42;25.83;;;23.13;;
13590;SDS011;6866;50.778;7.206;2024-01-07T07:11:08;18.88;;;16.77;;
13590;SDS011;6866;50.778;7.206;2024-01-07T07:13:34;25.40;;;22.17;;
13590;SDS011;6866;50.778;7.206;2024-01-07T07:15:59;25.40;;;22.63;;
13590;SDS011;6866;50.778;7.206;2024-01-07T07:18:25;26.50;;;22.85;;
13590;SDS011;6866;50.778;7.206;2024-01-07T07:20:51;26.20;;;23.40;;
13590;SDS011;6866;50.778;7.206;2024-01-07T07:23:17;25.80;;;22.45;;
13590;SDS011;6866;50.778;7.206;2024-01-07T07:25:43;27.65;;;23.13;;
13590;SDS011;6866;50.778;7.206;2024-01-07T07:28:08;25.65;;;22.58;;
13590;SDS011;6866;50.778;7.206;2024-01-07T07:30:34;27.23;;;23.83;;
13590;SDS011;6866;50.778;7.206;2024-01-07T07:32:59;26.25;;;23.30;;
13590;SDS011;6866;50.778;7.206;2024-01-07T07:35:25;28.27;;;24.48;;
13590;SDS011;6866;50.778;7.206;2024-01-07T07:37:50;26.63;;;23.25;;
13590;SDS011;6866;50.778;7.206;2024-01-07T07:40:16;26.92;;;22.63;;
13590;SDS011;6866;50.778;7.206;2024-01-07T07:42:42;27.65;;;24.45;;
13590;SDS011;6866;50.778;7.206;2024-01-07T07:45:08;27.48;;;23.90;;
13590;SDS011;6866;50.778;7.206;2024-01-07T07:47:34;25.42;;;22.55;;
13590;SDS011;6866;50.778;7.206;2024-01-07T07:49:59;27.15;;;23.17;;
13590;SDS011;6866;50.778;7.206;2024-01-07T07:52:25;25.75;;;22.70;;
13590;SDS011;6866;50.778;7.206;2024-01-07T07:54:51;26.95;;;23.13;;
13590;SDS011;6866;50.778;7.206;2024-01-07T07:57:19;26.08;;;22.85;;
13590;SDS011;6866;50.778;7.206;2024-01-07T07:59:46;25.73;;;22.75;;
13590;SDS011;6866;50.778;7.206;2024-01-07T08:02:12;20.40;;;17.80;;
13590;SDS011;6866;50.778;7.206;2024-01-07T08:04:38;25.48;;;22.48;;
13590;SDS011;6866;50.778;7.206;2024-01-07T08:07:06;26.13;;;23.00;;
13590;SDS011;6866;50.778;7.206;2024-01-07T08:09:32;26.10;;;22.25;;
13590;SDS011;6866;50.778;7.206;2024-01-07T08:11:57;25.40;;;22.33;;
13590;SDS011;6866;50.778;7.206;2024-01-07T08:14:23;25.65;;;22.35;;
13590;SDS011;6866;50.778;7.206;2024-01-07T08:16:49;23.45;;;20.83;;
13590;SDS011;6866;50.778;7.206;2024-01-07T08:19:14;24.77;;;20.98;;
13590;SDS011;6866;50.778;7.206;2024-01-07T08:21:40;24.98;;;21.23;;
13590;SDS011;6866;50.778;7.206;2024-01-07T08:24:05;25.50;;;20.80;;
13590;SDS011;6866;50.778;7.206;2024-01-07T08:26:31;23.08;;;20.58;;
13590;SDS011;6866;50.778;7.206;2024-01-07T08:28:56;23.33;;;20.00;;
13590;SDS011;6866;50.778;7.206;2024-01-07T08:31:22;23.02;;;20.15;;
13590;SDS011;6866;50.778;7.206;2024-01-07T08:33:47;21.90;;;19.40;;
13590;SDS011;6866;50.778;7.206;2024-01-07T08:36:13;23.08;;;20.25;;
13590;SDS011;6866;50.778;7.206;2024-01-07T08:38:38;23.27;;;19.80;;
13590;SDS011;6866;50.778;7.206;2024-01-07T08:41:07;23.63;;;20.20;;
13590;SDS011;6866;50.778;7.206;2024-01-07T08:43:32;25.10;;;20.63;;
13590;SDS011;6866;50.778;7.206;2024-01-07T08:45:58;21.70;;;18.67;;
13590;SDS011;6866;50.778;7.206;2024-01-07T08:48:23;21.65;;;19.25;;
13590;SDS011;6866;50.778;7.206;2024-01-07T08:50:49;22.10;;;19.70;;
13590;SDS011;6866;50.778;7.206;2024-01-07T08:53:15;22.17;;;19.80;;
13590;SDS011;6866;50.778;7.206;2024-01-07T08:55:41;21.60;;;18.17;;
13590;SDS011;6866;50.778;7.206;2024-01-07T08:58:06;19.40;;;17.30;;
13590;SDS011;6866;50.778;7.206;2024-01-07T09:00:32;19.58;;;17.05;;
13590;SDS011;6866;50.778;7.206;2024-01-07T09:02:57;19.42;;;17.30;;
13590;SDS011;6866;50.778;7.206;2024-01-07T09:05:23;19.85;;;17.73;;
13590;SDS011;6866;50.778;7.206;2024-01-07T09:07:51;20.25;;;18.05;;
13590;SDS011;6866;50.778;7.206;2024-01-07T09:10:17;22.13;;;18.05;;
13590;SDS011;6866;50.778;7.206;2024-01-07T09:12:44;21.10;;;18.63;;
13590;SDS011;6866;50.778;7.206;2024-01-07T09:15:09;20.00;;;17.80;;
13590;SDS011;6866;50.778;7.206;2024-01-07T09:17:35;19.77;;;17.63;;
13590;SDS011;6866;50.778;7.206;2024-01-07T09:20:03;19.80;;;17.58;;
13590;SDS011;6866;50.778;7.206;2024-01-07T09:22:32;20.70;;;18.20;;
13590;SDS011;6866;50.778;7.206;2024-01-07T09:24:57;20.52;;;18.33;;
13590;SDS011;6866;50.778;7.206;2024-01-07T09:27:23;22.75;;;19.25;;
13590;SDS011;6866;50.778;7.206;2024-01-07T09:29:48;21.88;;;18.80;;
13590;SDS011;6866;50.778;7.206;2024-01-07T09:32:14;24.00;;;20.58;;
13590;SDS011;6866;50.778;7.206;2024-01-07T09:34:39;22.73;;;19.48;;
13590;SDS011;6866;50.778;7.206;2024-01-07T09:37:05;22.77;;;19.27;;
13590;SDS011;6866;50.778;7.206;2024-01-07T09:39:31;23.20;;;19.75;;
13590;SDS011;6866;50.778;7.206;2024-01-07T09:41:57;23.75;;;20.27;;
13590;SDS011;6866;50.778;7.206;2024-01-07T09:44:22;23.45;;;19.45;;
13590;SDS011;6866;50.778;7.206;2024-01-07T09:46:48;23.42;;;19.33;;
13590;SDS011;6866;50.778;7.206;2024-01-07T09:49:17;24.35;;;19.65;;
13590;SDS011;6866;50.778;7.206;2024-01-07T09:51:42;21.63;;;18.90;;
13590;SDS011;6866;50.778;7.206;2024-01-07T09:54:12;22.48;;;18.70;;
13590;SDS011;6866;50.778;7.206;2024-01-07T09:56:42;22.73;;;18.90;;
13590;SDS011;6866;50.778;7.206;2024-01-07T09:59:16;22.33;;;19.23;;
13590;SDS011;6866;50.778;7.206;2024-01-07T10:01:43;23.73;;;19.67;;
13590;SDS011;6866;50.778;7.206;2024-01-07T10:04:10;22.58;;;18.98;;
13590;SDS011;6866;50.778;7.206;2024-01-07T10:06:36;22.02;;;18.80;;
13590;SDS011;6866;50.778;7.206;2024-01-07T10:09:02;21.58;;;18.98;;
13590;SDS011;6866;50.778;7.206;2024-01-07T10:11:31;22.33;;;19.33;;
13590;SDS011;6866;50.778;7.206;2024-01-07T10:13:58;21.23;;;18.33;;
13590;SDS011;6866;50.778;7.206;2024-01-07T10:16:24;21.58;;;18.65;;
13590;SDS011;6866;50.778;7.206;2024-01-07T10:18:50;27.85;;;19.67;;
13590;SDS011;6866;50.778;7.206;2024-01-07T10:21:16;23.00;;;19.55;;
13590;SDS011;6866;50.778;7.206;2024-01-07T10:23:42;23.13;;;19.40;;
13590;SDS011;6866;50.778;7.206;2024-01-07T10:26:08;21.55;;;18.75;;
13590;SDS011;6866;50.778;7.206;2024-01-07T10:28:34;23.30;;;19.15;;
13590;SDS011;6866;50.778;7.206;2024-01-07T10:30:59;22.67;;;19.23;;
13590;SDS011;6866;50.778;7.206;2024-01-07T10:33:25;23.30;;;19.75;;
13590;SDS011;6866;50.778;7.206;2024-01-07T10:35:57;18.30;;;15.50;;
13590;SDS011;6866;50.778;7.206;2024-01-07T10:40:52;22.83;;;19.33;;
13590;SDS011;6866;50.778;7.206;2024-01-07T10:43:20;22.10;;;19.13;;
13590;SDS011;6866;50.778;7.206;2024-01-07T10:45:46;21.38;;;19.05;;
13590;SDS011;6866;50.778;7.206;2024-01-07T10:48:17;23.95;;;14.70;;
13590;SDS011;6866;50.778;7.206;2024-01-07T10:50:45;21.60;;;19.27;;
13590;SDS011;6866;50.778;7.206;2024-01-07T10:53:12;22.17;;;18.90;;
13590;SDS011;6866;50.778;7.206;2024-01-07T10:55:42;21.98;;;19.55;;
13590;SDS011;6866;50.778;7.206;2024-01-07T10:58:16;19.83;;;17.73;;
13590;SDS011;6866;50.778;7.206;2024-01-07T11:00:44;17.17;;;15.48;;
13590;SDS011;6866;50.778;7.206;2024-01-07T11:08:23;28.20;;;25.25;;
13590;SDS011;6866;50.778;7.206;2024-01-07T11:10:55;21.33;;;19.08;;
13590;SDS011;6866;50.778;7.206;2024-01-07T11:13:33;18.13;;;16.23;;
13590;SDS011;6866;50.778;7.206;2024-01-07T11:16:01;16.55;;;14.68;;
13590;SDS011;6866;50.778;7.206;2024-01-07T11:18:27;15.27;;;13.68;;
13590;SDS011;6866;50.778;7.206;2024-01-07T11:21:00;15.38;;;13.77;;
13590;SDS011;6866;50.778;7.206;2024-01-07T11:23:32;15.60;;;13.98;;
13590;SDS011;6866;50.778;7.206;2024-01-07T11:26:01;17.00;;;15.20;;
13590;SDS011;6866;50.778;7.206;2024-01-07T11:31:24;17.20;;;15.40;;
13590;SDS011;6866;50.778;7.206;2024-01-07T11:34:07;16.45;;;11.27;;
13590;SDS011;6866;50.778;7.206;2024-01-07T11:36:36;18.05;;;15.88;;
13590;SDS011;6866;50.778;7.206;2024-01-07T11:39:02;16.38;;;14.77;;
13590;SDS011;6866;50.778;7.206;2024-01-07T11:41:31;16.27;;;14.40;;
13590;SDS011;6866;50.778;7.206;2024-01-07T11:43:59;16.27;;;14.32;;
13590;SDS011;6866;50.778;7.206;2024-01-07T11:46:31;16.55;;;14.73;;
13590;SDS011;6866;50.778;7.206;2024-01-07T11:49:12;16.33;;;14.48;;
13590;SDS011;6866;50.778;7.206;2024-01-07T11:51:40;17.38;;;15.57;;
13590;SDS011;6866;50.778;7.206;2024-01-07T11:54:08;18.23;;;16.33;;
13590;SDS011;6866;50.778;7.206;2024-01-07T11:56:50;18.13;;;16.23;;
13590;SDS011;6866;50.778;7.206;2024-01-07T11:59:15;16.38;;;14.68;;
13590;SDS011;6866;50.778;7.206;2024-01-07T12:01:41;18.45;;;16.52;;
13590;SDS011;6866;50.778;7.206;2024-01-07T12:04:07;18.20;;;16.30;;
13590;SDS011;6866;50.778;7.206;2024-01-07T12:06:34;19.40;;;16.80;;
13590;SDS011;6866;50.778;7.206;2024-01-07T12:09:00;18.17;;;16.27;;
13590;SDS011;6866;50.778;7.206;2024-01-07T12:11:25;20.13;;;16.75;;
13590;SDS011;6866;50.778;7.206;2024-01-07T12:13:51;20.63;;;18.15;;
13590;SDS011;6866;50.778;7.206;2024-01-07T12:16:17;20.95;;;17.70;;
13590;SDS011;6866;50.778;7.206;2024-01-07T12:18:43;18.65;;;16.63;;
13590;SDS011;6866;50.778;7.206;2024-01-07T12:21:08;19.65;;;17.30;;
13590;SDS011;6866;50.778;7.206;2024-01-07T12:23:37;20.48;;;16.98;;
13590;SDS011;6866;50.778;7.206;2024-01-07T12:26:11;18.30;;;16.35;;
13590;SDS011;6866;50.778;7.206;2024-01-07T12:28:37;18.15;;;16.25;;
13590;SDS011;6866;50.778;7.206;2024-01-07T12:31:04;18.73;;;16.17;;
13590;SDS011;6866;50.778;7.206;2024-01-07T12:33:30;18.65;;;16.10;;
13590;SDS011;6866;50.778;7.206;2024-01-07T12:35:57;18.92;;;16.83;;
13590;SDS011;6866;50.778;7.206;2024-01-07T12:38:29;19.48;;;16.75;;
13590;SDS011;6866;50.778;7.206;2024-01-07T12:41:00;19.95;;;15.82;;
13590;SDS011;6866;50.778;7.206;2024-01-07T12:43:31;17.42;;;15.07;;
13590;SDS011;6866;50.778;7.206;2024-01-07T12:45:57;18.02;;;15.07;;
13590;SDS011;6866;50.778;7.206;2024-01-07T12:48:29;17.55;;;14.35;;
13590;SDS011;6866;50.778;7.206;2024-01-07T12:50:55;15.85;;;14.23;;
13590;SDS011;6866;50.778;7.206;2024-01-07T12:53:20;17.20;;;14.50;;
13590;SDS011;6866;50.778;7.206;2024-01-07T12:55:46;16.30;;;14.23;;
13590;SDS011;6866;50.778;7.206;2024-01-07T12:58:14;16.33;;;14.07;;
13590;SDS011;6866;50.778;7.206;2024-01-07T13:00:51;16.05;;;14.32;;
13590;SDS011;6866;50.778;7.206;2024-01-07T13:03:16;16.30;;;14.00;;
13590;SDS011;6866;50.778;7.206;2024-01-07T13:05:46;16.05;;;13.93;;
13590;SDS011;6866;50.778;7.206;2024-01-07T13:08:14;15.85;;;13.18;;
13590;SDS011;6866;50.778;7.206;2024-01-07T13:10:40;16.45;;;13.73;;
13590;SDS011;6866;50.778;7.206;2024-01-07T13:13:06;16.55;;;14.13;;
13590;SDS011;6866;50.778;7.206;2024-01-07T13:15:32;15.73;;;12.93;;
13590;SDS011;6866;50.778;7.206;2024-01-07T13:17:57;15.65;;;13.35;;
13590;SDS011;6866;50.778;7.206;2024-01-07T13:20:23;16.45;;;12.82;;
13590;SDS011;6866;50.778;7.206;2024-01-07T13:22:48;14.80;;;12.40;;
13590;SDS011;6866;50.778;7.206;2024-01-07T13:25:14;15.57;;;12.30;;
13590;SDS011;6866;50.778;7.206;2024-01-07T13:27:40;14.80;;;12.23;;
13590;SDS011;6866;50.778;7.206;2024-01-07T13:30:07;17.85;;;14.30;;
13590;SDS011;6866;50.778;7.206;2024-01-07T13:32:33;33.38;;;16.23;;
13590;SDS011;6866;50.778;7.206;2024-01-07T13:35:01;31.90;;;16.55;;
13590;SDS011;6866;50.778;7.206;2024-01-07T13:37:29;17.85;;;12.52;;
13590;SDS011;6866;50.778;7.206;2024-01-07T13:39:55;17.27;;;12.82;;
13590;SDS011;6866;50.778;7.206;2024-01-07T13:42:21;16.50;;;12.98;;
13590;SDS011;6866;50.778;7.206;2024-01-07T13:44:47;14.40;;;10.80;;
13590;SDS011;6866;50.778;7.206;2024-01-07T13:47:13;20.65;;;12.07;;
13590;SDS011;6866;50.778;7.206;2024-01-07T13:52:37;17.00;;;11.45;;
13590;SDS011;6866;50.778;7.206;2024-01-07T13:55:02;15.55;;;8.05;;
13590;SDS011;6866;50.778;7.206;2024-01-07T13:57:28;14.48;;;10.30;;
13590;SDS011;6866;50.778;7.206;2024-01-07T13:59:55;12.77;;;9.38;;
13590;SDS011;6866;50.778;7.206;2024-01-07T14:02:21;10.68;;;8.15;;
13590;SDS011;6866;50.778;7.206;2024-01-07T14:04:47;11.52;;;8.70;;
13590;SDS011;6866;50.778;7.206;2024-01-07T14:07:13;12.02;;;8.55;;
13590;SDS011;6866;50.778;7.206;2024-01-07T14:09:39;11.65;;;8.52;;
13590;SDS011;6866;50.778;7.206;2024-01-07T14:12:05;9.10;;;7.35;;
13590;SDS011;6866;50.778;7.206;2024-01-07T14:14:31;12.00;;;5.22;;
13590;SDS011;6866;50.778;7.206;2024-01-07T14:16:56;10.18;;;7.22;;
13590;SDS011;6866;50.778;7.206;2024-01-07T14:19:22;8.30;;;6.28;;
13590;SDS011;6866;50.778;7.206;2024-01-07T14:21:47;10.57;;;6.68;;
13590;SDS011;6866;50.778;7.206;2024-01-07T14:24:13;9.32;;;6.30;;
13590;SDS011;6866;50.778;7.206;2024-01-07T14:26:39;9.05;;;6.32;;
13590;SDS011;6866;50.778;7.206;2024-01-07T14:29:04;8.75;;;5.93;;
13590;SDS011;6866;50.778;7.206;2024-01-07T14:31:30;8.18;;;5.70;;
13590;SDS011;6866;50.778;7.206;2024-01-07T14:33:56;8.20;;;6.20;;
13590;SDS011;6866;50.778;7.206;2024-01-07T14:36:21;8.65;;;5.50;;
13590;SDS011;6866;50.778;7.206;2024-01-07T14:38:48;7.60;;;5.10;;
13590;SDS011;6866;50.778;7.206;2024-01-07T14:41:14;7.20;;;3.85;;
13590;SDS011;6866;50.778;7.206;2024-01-07T14:43:40;7.90;;;5.25;;
13590;SDS011;6866;50.778;7.206;2024-01-07T14:46:09;7.35;;;5.15;;